< < Back
Terminal Aerodrome Forecast


Current Version              Previous Versions:   1  2  3  4  5  6  7  8  9  

Terminal Aerodrome Forecast

635
FTUS42 KILM 021800 AAA
TAFFLO
TAF AMD
KFLO 021855Z 0219/0318 35008KT P6SM SCT015
     FM022000 03010KT P6SM SCT025
     FM030400 07012KT P6SM BKN050
     FM031300 08010KT P6SM VCSH OVC025=



Latest METAR

733
SAUS70 KWBC 030400 RRO
MTRFLO
METAR KFLO 030353Z AUTO 00000KT 10SM FEW075 10/08 A3029 RMK AO2 SLP256
T01000083


USA.gov is the U.S. government's official web portal to all federal, state and local government web resources and services.